WetterOnline ( http://www.wetteronline.de )

Wetter aktuell Fürstenzell

Aktuelles Wetter: Fürstenzell (480m)

6-stündlich | Neueste Meldungen
Ortszeit Temperatur Wetter
Mi, 20.02. 7:00 0.2° C Nebel
Mi, 20.02. 1:00 4.1° C wolkig
Di, 19.02. 19:00 7.0° C bewölkt
Di, 19.02. 13:00 7.3° C leicht bewölkt
Di, 19.02. 7:00 -1.5° C leicht bewölkt
Di, 19.02. 1:00 0.3° C wolkenlos
Mo, 18.02. 19:00 6.6° C wolkenlos
Mo, 18.02. 13:00 8.0° C wolkenlos
Ortszeit Temperatur Wetter
Mi, 20.02. 8:00 -0.0° C Nebel
Mi, 20.02. 7:50 -0.0° C Nebel
Mi, 20.02. 7:40 -0.1° C Nebel
Mi, 20.02. 7:30 -0.5° C Nebel
Mi, 20.02. 7:20 -0.5° C Nebel
Mi, 20.02. 7:10 -0.6° C Nebel
Mi, 20.02. 7:00 0.2° C Nebel
Mi, 20.02. 6:30 1.0° C Nebel
Mi, 20.02. 6:00 2.0° C wolkig
Mi, 20.02. 5:30 2.4° C wolkig
Mi, 20.02. 5:00 2.1° C leicht bewölkt
Ortszeit Relative Feuchte Sichtweite
Mi, 20.02. 7:00 100% <100 m
Mi, 20.02. 1:00 89% 4.1 km
Di, 19.02. 19:00 66% 5.0 km
Di, 19.02. 13:00 59% 7 km
Di, 19.02. 7:00 94% 3.1 km
Di, 19.02. 1:00 82% 5.0 km
Mo, 18.02. 19:00 62% 8 km
Mo, 18.02. 13:00 58% 7 km
Ortszeit Relative Feuchte Sichtweite
Mi, 20.02. 8:00 100% 0.3 km
Mi, 20.02. 7:50 100% -
Mi, 20.02. 7:40 100% -
Mi, 20.02. 7:30 100% <100 m
Mi, 20.02. 7:20 100% -
Mi, 20.02. 7:10 100% -
Mi, 20.02. 7:00 100% <100 m
Mi, 20.02. 6:30 100% <100 m
Mi, 20.02. 6:00 99% 1.3 km
Mi, 20.02. 5:30 99% 1.4 km
Mi, 20.02. 5:00 99% 1.5 km
Ortszeit Niederschlagsmenge Niederschlagsart
Mi, 20.02. 7:00 0.1 l/m2 in 12 Std. -
Mi, 20.02. 1:00 0.1 l/m2 in 6 Std. Regen
Di, 19.02. 19:00 0.0 l/m2 in 12 Std. -
Di, 19.02. 13:00 0.0 l/m2 in 6 Std. -
Di, 19.02. 7:00 0.0 l/m2 in 12 Std. -
Di, 19.02. 1:00 0.0 l/m2 in 6 Std. -
Mo, 18.02. 19:00 0.0 l/m2 in 12 Std. -
Mo, 18.02. 13:00 0.0 l/m2 in 6 Std. -
Ortszeit Niederschlagsmenge Niederschlagsart
Mi, 20.02. 8:00 0.0 l/m2 in 1 Std. -
Mi, 20.02. 7:50 keine Meldung -
Mi, 20.02. 7:40 keine Meldung -
Mi, 20.02. 7:30 0.0 l/m2 in 1 Std. -
Mi, 20.02. 7:20 keine Meldung -
Mi, 20.02. 7:10 keine Meldung -
Mi, 20.02. 7:00 0.0 l/m2 in 1 Std. -
Mi, 20.02. 6:30 0.0 l/m2 in 1 Std. -
Mi, 20.02. 6:00 0.0 l/m2 in 1 Std. -
Mi, 20.02. 5:30 0.0 l/m2 in 1 Std. -
Mi, 20.02. 5:00 0.0 l/m2 in 1 Std. -
Ortszeit Stärke Spitze Richtung
km/h Bft. km/h Grad Sektor
Mi, 20.02. 7:00 7 2 20 40° NO
Mi, 20.02. 1:00 14 3 25 290° W
Di, 19.02. 19:00 4 1 14 40° NO
Di, 19.02. 13:00 4 1 11 280° W
Di, 19.02. 7:00 7 2 11 190° S
Di, 19.02. 1:00 7 2 11 40° NO
Mo, 18.02. 19:00 7 2 11 360° N
Mo, 18.02. 13:00 0 0 11 - -
Ortszeit Stärke Spitze Richtung
km/h Bft. km/h Grad Sektor
Mi, 20.02. 8:00 7 2 11 40° NO
Mi, 20.02. 7:50 7 2 - 40° NO
Mi, 20.02. 7:40 7 2 - 30° NO
Mi, 20.02. 7:30 7 2 11 40° NO
Mi, 20.02. 7:20 7 2 - 40° NO
Mi, 20.02. 7:10 9 2 - 40° NO
Mi, 20.02. 7:00 7 2 9 40° NO
Mi, 20.02. 6:30 4 1 7 50° NO
Mi, 20.02. 6:00 11 2 11 300° NW
Mi, 20.02. 5:30 7 2 11 280° W
Mi, 20.02. 5:00 6 1 9 350° N
Ortszeit Untergrenze Bedeckung Gattung
total tief tief mittel hoch
Mi, 20.02. 7:00 <30 m 7/8 0/8 - - -
Mi, 20.02. 1:00 2400 m 5/8 5/8 - - -
Di, 19.02. 19:00 1800 m 8/8 7/8 - - -
Di, 19.02. 13:00 9000 m 6/8 0/8 - - -
Di, 19.02. 7:00 9000 m 3/8 0/8 - - -
Di, 19.02. 1:00 - 0/8 0/8 - - -
Mo, 18.02. 19:00 - 0/8 0/8 - - -
Mo, 18.02. 13:00 - 0/8 0/8 - - -
Ortszeit Bedeckungsgrad in Achtel und Wolkenuntergrenze
Mi, 20.02. 8:00 8(5700m) 8(7800m)
Mi, 20.02. 7:50 8(5700m) 8(7800m)
Mi, 20.02. 7:40 1(<30m) 7(6000m) 7(6600m)
Mi, 20.02. 7:30 6(<30m) 7(6300m)
Mi, 20.02. 7:20 6(<30m) 7(6300m)
Mi, 20.02. 7:10 8(<30m) 8(750m)
Mi, 20.02. 7:00 7(<30m) 7(750m) 7(2100m)
Mi, 20.02. 6:30 2(<30m) 7(8400m) 7(9000m)
Mi, 20.02. 6:00 1(2100m) 7(9000m) 7(9000m)
Mi, 20.02. 5:30 1(1140m) 6(7500m) 7(9000m)
Mi, 20.02. 5:00 3(690m) 4(7500m) 5(9000m)
Ortszeit Luftdruck NN (hPa) Tendenz (hPa in 3 Std.)
Mi, 20.02. 7:00 1026 + 0,6
Mi, 20.02. 1:00 1024 + 0,8
Di, 19.02. 19:00 1021 - 0,1
Di, 19.02. 13:00 1022 - 0,8
Di, 19.02. 7:00 1023 + 0,5
Di, 19.02. 1:00 1022 + 0,1
Mo, 18.02. 19:00 1020 - 0,5
Mo, 18.02. 13:00 1023 - 1,3
Ortszeit Luftdruck NN (hPa) Tendenz (hPa in 3 Std.)
Mi, 20.02. 8:00 1026 + 0,9
Mi, 20.02. 7:50 1026 keine Meldung
Mi, 20.02. 7:40 1026 keine Meldung
Mi, 20.02. 7:30 1026 + 0,9
Mi, 20.02. 7:20 1026 keine Meldung
Mi, 20.02. 7:10 1026 keine Meldung
Mi, 20.02. 7:00 1026 + 0,6
Mi, 20.02. 6:30 1025 + 0,6
Mi, 20.02. 6:00 1025 + 0,5
Mi, 20.02. 5:30 1025 + 0,3
Mi, 20.02. 5:00 1025 + 0,3
Ortszeit Schneehöhe (cm)
Mi, 20.02. 7:00 8
Mi, 20.02. 1:00 8
Di, 19.02. 19:00 8
Di, 19.02. 13:00 9
Di, 19.02. 7:00 9
Di, 19.02. 1:00 9
Mo, 18.02. 19:00 9
Mo, 18.02. 13:00 10
Ortszeit Schneehöhe (cm)
Mi, 20.02. 8:00 8
Mi, 20.02. 7:50 8
Mi, 20.02. 7:40 8
Mi, 20.02. 7:30 8
Mi, 20.02. 7:20 8
Mi, 20.02. 7:10 8
Mi, 20.02. 7:00 8
Mi, 20.02. 6:30 8
Mi, 20.02. 6:00 8
Mi, 20.02. 5:30 8
Mi, 20.02. 5:00 8
Link zu dieser Seite / Seite empfehlen

Das Wetter in ...